Time;durP1;ratioP1;P1;durP2;ratioP2;P2;SDS_P1;SDS_P2;PMS_P1;PMS_P2;Temp;Humidity;BMP_temperature;BMP_pressure;BME280_temperature;BME280_humidity;BME280_pressure;Samples;Min_cycle;Max_cycle;Signal;HPM_P1;HPM_P2
2023/08/03 00:00:19;;;;;;;7.68;6.82;;;;;;;23.33;47.81;93454.59;5067337;28;20315;-75
2023/08/03 00:02:45;;;;;;;8.65;7.32;;;;;;;23.28;47.77;93457.75;5067277;28;20040;-74
2023/08/03 00:05:11;;;;;;;9.55;7.55;;;;;;;23.26;48.66;93468.25;5068223;28;20033;-75
2023/08/03 00:07:37;;;;;;;8.35;6.93;;;;;;;23.21;48.69;93472.16;5067948;28;20498;-73
2023/08/03 00:10:02;;;;;;;8.68;7.78;;;;;;;23.19;48.60;93473.72;5065638;28;20569;-74
2023/08/03 00:12:28;;;;;;;10.73;7.35;;;;;;;23.14;48.72;93473.00;5068142;28;20105;-74
2023/08/03 00:14:53;;;;;;;8.25;7.22;;;;;;;23.11;48.99;93479.22;5065242;28;20029;-74
2023/08/03 00:17:19;;;;;;;10.75;7.63;;;;;;;22.99;49.03;93463.44;5065232;28;20036;-74
2023/08/03 00:19:44;;;;;;;7.88;7.18;;;;;;;22.94;49.01;93450.28;5058159;28;20410;-73
2023/08/03 00:22:10;;;;;;;9.85;7.80;;;;;;;22.98;48.73;93458.41;5066967;28;20043;-73
2023/08/03 00:24:36;;;;;;;8.25;7.45;;;;;;;23.06;49.06;93470.75;5066915;28;20063;-74
2023/08/03 00:27:02;;;;;;;10.50;7.35;;;;;;;23.03;48.80;93456.03;5064906;28;20461;-74
2023/08/03 00:29:27;;;;;;;8.93;8.13;;;;;;;22.97;49.05;93460.38;5068047;28;20134;-74
2023/08/03 00:31:53;;;;;;;9.13;8.15;;;;;;;23.03;48.94;93466.88;5067261;28;20036;-73
2023/08/03 00:34:18;;;;;;;9.63;8.38;;;;;;;22.94;49.06;93463.84;5064511;28;20490;-76
2023/08/03 00:36:44;;;;;;;8.82;7.93;;;;;;;22.89;49.42;93458.09;5068037;28;20029;-74
2023/08/03 00:39:10;;;;;;;10.18;7.97;;;;;;;22.86;49.43;93448.81;5067090;28;20510;-75
2023/08/03 00:41:35;;;;;;;10.90;7.85;;;;;;;22.88;49.34;93465.44;5063224;28;20060;-73
2023/08/03 00:44:00;;;;;;;7.97;7.28;;;;;;;22.84;49.74;93458.47;5066218;28;20028;-75
2023/08/03 00:46:26;;;;;;;12.05;8.43;;;;;;;22.77;49.75;93448.47;5066517;28;20036;-74
2023/08/03 00:48:51;;;;;;;10.15;8.00;;;;;;;22.82;49.76;93456.19;5065663;28;20558;-75
2023/08/03 00:51:17;;;;;;;9.73;8.38;;;;;;;22.85;49.68;93460.81;5066695;28;20036;-74
2023/08/03 00:53:45;;;;;;;8.73;7.70;;;;;;;22.82;50.11;93461.59;5071423;28;20027;-75
2023/08/03 00:56:14;;;;;;;9.85;8.80;;;;;;;22.82;50.08;93458.91;5071364;28;20039;-73
2023/08/03 00:58:40;;;;;;;11.13;8.35;;;;;;;22.71;50.24;93453.56;5070455;28;20038;-74
2023/08/03 01:01:05;;;;;;;10.20;8.25;;;;;;;22.69;50.30;93452.38;5068655;28;20028;-73
2023/08/03 01:03:31;;;;;;;9.02;8.07;;;;;;;22.67;50.37;93462.88;5071735;28;20236;-74
2023/08/03 01:05:57;;;;;;;10.18;8.38;;;;;;;22.50;50.24;93433.94;5068337;28;20077;-74
2023/08/03 01:08:23;;;;;;;9.68;8.27;;;;;;;22.54;50.41;93453.66;5067818;28;20033;-73
2023/08/03 01:10:48;;;;;;;9.90;8.90;;;;;;;22.52;51.06;93458.72;5063111;28;20024;-74
2023/08/03 01:13:14;;;;;;;9.48;8.23;;;;;;;22.47;51.18;93453.72;5069795;28;20634;-74
2023/08/03 01:15:39;;;;;;;10.35;9.30;;;;;;;22.43;51.14;93455.69;5070338;28;20036;-74
2023/08/03 01:18:05;;;;;;;8.93;8.07;;;;;;;22.46;51.03;93461.06;5075965;28;20360;-73
2023/08/03 01:20:34;;;;;;;11.55;8.18;;;;;;;22.40;51.28;93461.88;5071453;28;20040;-74
2023/08/03 01:23:01;;;;;;;12.02;8.93;;;;;;;22.41;51.18;93460.72;5067944;28;20035;-75
2023/08/03 01:25:26;;;;;;;10.35;9.18;;;;;;;22.40;51.41;93461.88;5071854;28;20044;-74
2023/08/03 01:27:52;;;;;;;15.30;8.55;;;;;;;22.44;51.10;93465.34;5069632;28;20059;-74
2023/08/03 01:30:17;;;;;;;13.07;8.10;;;;;;;22.46;51.13;93460.28;5070705;28;20093;-75
2023/08/03 01:32:43;;;;;;;10.70;8.10;;;;;;;22.48;51.09;93463.41;5070441;28;20938;-73
2023/08/03 01:35:08;;;;;;;10.15;8.68;;;;;;;22.47;51.14;93464.56;5069357;28;20037;-74
2023/08/03 01:37:35;;;;;;;9.27;8.32;;;;;;;22.46;51.08;93463.78;5069551;28;20606;-74
2023/08/03 01:40:00;;;;;;;9.13;8.05;;;;;;;22.46;51.07;93463.00;5073857;28;20432;-75
2023/08/03 01:42:26;;;;;;;10.43;9.32;;;;;;;22.37;51.24;93447.19;5052255;28;20610;-74
2023/08/03 01:44:51;;;;;;;9.15;8.23;;;;;;;22.32;51.41;93447.59;5070271;28;20857;-76
2023/08/03 01:47:16;;;;;;;9.65;8.57;;;;;;;22.36;51.37;93455.72;5069546;28;20037;-75
2023/08/03 01:49:42;;;;;;;11.48;8.35;;;;;;;22.35;51.35;93460.34;5069837;28;20040;-77
2023/08/03 01:52:07;;;;;;;9.70;8.80;;;;;;;22.36;50.99;93453.78;5067515;28;20027;-75
2023/08/03 01:54:32;;;;;;;9.45;8.23;;;;;;;22.39;51.09;93460.34;5072805;28;20055;-74
2023/08/03 01:56:58;;;;;;;9.65;8.40;;;;;;;22.34;51.17;93458.06;5070890;28;20567;-73
2023/08/03 01:59:23;;;;;;;10.10;8.25;;;;;;;22.27;50.76;93453.44;5070652;28;20035;-75
2023/08/03 02:01:49;;;;;;;8.70;7.60;;;;;;;22.28;51.31;93468.53;5067770;28;20506;-75
2023/08/03 02:04:14;;;;;;;8.85;7.90;;;;;;;22.30;51.04;93471.59;5068486;28;20039;-75
2023/08/03 02:06:40;;;;;;;8.60;7.80;;;;;;;22.20;51.33;93458.84;5067020;28;20457;-76
2023/08/03 02:09:05;;;;;;;9.18;8.20;;;;;;;22.17;51.26;93454.25;5067901;28;20044;-73
2023/08/03 02:11:33;;;;;;;12.55;8.20;;;;;;;22.08;51.88;93451.19;5068350;28;20521;-76
2023/08/03 02:13:59;;;;;;;10.20;9.20;;;;;;;22.07;51.93;93457.75;5067377;28;20586;-76
2023/08/03 02:16:24;;;;;;;11.15;8.93;;;;;;;22.13;52.04;93465.09;5069816;28;20542;-75
2023/08/03 02:18:50;;;;;;;10.18;9.20;;;;;;;22.14;51.99;93466.66;5069143;28;20028;-76
2023/08/03 02:21:15;;;;;;;9.65;8.10;;;;;;;22.10;52.35;93459.69;5069794;28;20028;-76
2023/08/03 02:23:40;;;;;;;10.27;8.75;;;;;;;21.98;52.48;93447.38;5068821;28;20099;-76
2023/08/03 02:26:06;;;;;;;10.02;8.95;;;;;;;22.10;52.37;93463.16;5076808;28;20032;-75
2023/08/03 02:28:32;;;;;;;10.63;9.23;;;;;;;22.01;52.73;93456.63;5066638;28;20087;-75
2023/08/03 02:30:58;;;;;;;9.88;8.73;;;;;;;22.04;52.55;93470.16;5067750;28;20552;-75
2023/08/03 02:33:25;;;;;;;9.63;8.63;;;;;;;22.00;52.62;93472.09;5068608;28;20567;-76
2023/08/03 02:35:50;;;;;;;11.68;9.18;;;;;;;21.92;52.53;93476.00;5066764;28;20224;-75
2023/08/03 02:38:15;;;;;;;13.98;9.43;;;;;;;21.89;52.74;93468.69;5066998;28;20037;-75
2023/08/03 02:40:41;;;;;;;9.15;8.15;;;;;;;21.82;52.84;93469.47;5069192;28;20479;-75
2023/08/03 02:43:06;;;;;;;10.32;8.45;;;;;;;21.93;53.16;93474.06;5067301;28;20550;-75
2023/08/03 02:45:32;;;;;;;10.77;8.90;;;;;;;21.88;53.18;93478.72;5069476;28;20414;-74
2023/08/03 02:47:57;;;;;;;9.07;8.18;;;;;;;21.82;53.45;93474.09;5065601;28;20561;-75
2023/08/03 02:50:22;;;;;;;13.68;8.98;;;;;;;21.85;53.35;93467.94;5068377;28;20910;-75
2023/08/03 02:52:49;;;;;;;10.05;8.98;;;;;;;21.82;53.17;93472.19;5068588;28;20032;-75
2023/08/03 02:55:14;;;;;;;10.82;8.98;;;;;;;21.74;53.48;93478.00;5067034;28;20147;-74
2023/08/03 02:57:40;;;;;;;12.93;9.23;;;;;;;21.70;53.77;93469.91;5070048;28;20185;-76
2023/08/03 03:00:05;;;;;;;9.95;8.95;;;;;;;21.67;53.48;93467.19;5067907;28;20608;-75
2023/08/03 03:02:31;;;;;;;9.63;8.70;;;;;;;21.69;53.42;93473.00;5064209;27;20130;-76
2023/08/03 03:04:56;;;;;;;10.15;9.15;;;;;;;21.57;53.86;93471.47;5068120;28;20028;-76
2023/08/03 03:07:22;;;;;;;11.27;9.10;;;;;;;21.67;53.82;93486.13;5071777;28;20036;-75
2023/08/03 03:09:47;;;;;;;10.05;8.32;;;;;;;21.55;53.84;93473.03;5063660;28;20032;-77
2023/08/03 03:12:12;;;;;;;10.60;9.60;;;;;;;21.46;54.36;93476.88;5067262;28;20506;-75
2023/08/03 03:14:38;;;;;;;9.80;8.82;;;;;;;21.56;54.11;93485.41;5066225;28;20032;-75
2023/08/03 03:17:03;;;;;;;10.57;8.80;;;;;;;21.57;54.27;93487.69;5068039;28;20040;-73
2023/08/03 03:19:29;;;;;;;11.23;9.98;;;;;;;21.49;54.80;93485.38;5067207;28;20032;-75
2023/08/03 03:21:55;;;;;;;12.05;10.75;;;;;;;21.53;54.63;93486.13;5069644;28;20533;-76
2023/08/03 03:24:20;;;;;;;11.68;10.48;;;;;;;21.52;54.71;93498.13;5065928;28;20031;-75
2023/08/03 03:26:46;;;;;;;12.82;9.95;;;;;;;21.53;54.94;93499.66;5068406;28;20375;-76
2023/08/03 03:29:11;;;;;;;12.75;9.38;;;;;;;21.46;55.19;93498.50;5066494;28;20040;-75
2023/08/03 03:31:37;;;;;;;13.32;10.57;;;;;;;21.49;55.40;93504.31;5068206;28;20899;-76
2023/08/03 03:34:02;;;;;;;13.13;10.48;;;;;;;21.35;55.63;93502.41;5068735;28;20019;-75
2023/08/03 03:36:27;;;;;;;14.52;11.18;;;;;;;21.44;55.51;93516.31;5068052;28;21346;-75
2023/08/03 03:38:53;;;;;;;13.10;10.55;;;;;;;21.41;55.88;93515.13;5070535;28;20146;-75
2023/08/03 03:41:18;;;;;;;11.95;10.38;;;;;;;21.37;55.63;93498.16;5066810;28;20072;-75
2023/08/03 03:43:44;;;;;;;17.67;10.63;;;;;;;21.45;55.53;93493.50;5068332;28;20023;-74
2023/08/03 03:46:09;;;;;;;19.00;10.77;;;;;;;21.54;55.44;93498.50;5067760;28;20474;-76
2023/08/03 03:48:35;;;;;;;13.63;11.20;;;;;;;21.34;56.00;93474.59;5065940;28;20031;-76
2023/08/03 03:51:00;;;;;;;14.00;10.90;;;;;;;21.44;56.30;93506.25;5067377;28;20557;-76
2023/08/03 03:53:25;;;;;;;14.73;10.25;;;;;;;21.48;56.26;93497.34;5066739;28;20071;-75
2023/08/03 03:55:51;;;;;;;12.80;10.85;;;;;;;21.53;55.99;93508.56;5069379;28;20069;-75
2023/08/03 03:58:16;;;;;;;16.67;10.93;;;;;;;21.45;56.53;93502.41;5065023;28;20115;-76
2023/08/03 04:00:41;;;;;;;13.85;10.80;;;;;;;21.41;56.72;93509.72;5069340;28;20024;-74
2023/08/03 04:03:07;;;;;;;15.88;10.80;;;;;;;21.54;56.61;93514.75;5072292;28;20128;-75
2023/08/03 04:05:34;;;;;;;12.23;9.80;;;;;;;21.61;56.84;93509.38;5069130;28;20059;-75
2023/08/03 04:08:01;;;;;;;12.38;10.52;;;;;;;21.44;56.89;93483.84;5066940;28;21073;-76
2023/08/03 04:10:26;;;;;;;11.32;9.90;;;;;;;21.54;57.50;93498.50;5067277;28;20115;-76
2023/08/03 04:12:51;;;;;;;12.30;10.52;;;;;;;21.59;57.79;93503.56;5065268;28;20519;-75
2023/08/03 04:15:17;;;;;;;11.77;10.68;;;;;;;21.63;57.67;93505.09;5066298;28;20037;-74
2023/08/03 04:17:45;;;;;;;11.82;10.73;;;;;;;21.67;56.69;93492.31;5066487;28;20451;-75
2023/08/03 04:20:12;;;;;;;13.77;10.75;;;;;;;21.82;57.39;93515.47;5069491;28;20032;-75
2023/08/03 04:22:37;;;;;;;14.48;12.02;;;;;;;21.92;56.57;93518.53;5066786;28;20044;-74
2023/08/03 04:25:03;;;;;;;14.27;11.50;;;;;;;22.01;56.10;93521.59;5068451;28;20028;-76
2023/08/03 04:27:29;;;;;;;14.40;12.02;;;;;;;22.03;56.11;93513.88;5067387;28;20523;-76
2023/08/03 04:29:54;;;;;;;14.15;12.10;;;;;;;22.13;55.57;93519.25;5071097;28;20115;-76
2023/08/03 04:32:20;;;;;;;14.93;11.38;;;;;;;22.22;55.31;93514.22;5070373;28;20128;-74
2023/08/03 04:34:45;;;;;;;12.52;11.23;;;;;;;22.22;55.57;93508.81;5078407;28;20500;-74
2023/08/03 04:37:11;;;;;;;15.63;12.52;;;;;;;22.35;55.88;93532.72;5071246;27;20048;-74
2023/08/03 04:39:36;;;;;;;16.35;11.98;;;;;;;22.39;55.05;93519.97;5068361;28;20025;-75
2023/08/03 04:42:01;;;;;;;17.85;12.30;;;;;;;22.34;55.41;93512.25;5070776;28;20032;-74
2023/08/03 04:44:27;;;;;;;16.45;12.55;;;;;;;22.49;55.74;93521.81;5070033;28;20114;-76
2023/08/03 04:46:52;;;;;;;16.48;12.40;;;;;;;22.51;55.82;93519.50;5071620;28;20044;-74
2023/08/03 04:49:18;;;;;;;16.02;12.95;;;;;;;22.59;55.13;93524.47;5070155;28;20111;-76
2023/08/03 04:51:43;;;;;;;18.05;12.77;;;;;;;22.68;54.26;93532.94;5070969;28;20038;-74
2023/08/03 04:54:11;;;;;;;19.70;13.15;;;;;;;22.74;55.01;93530.59;5069524;28;20067;-76
2023/08/03 04:56:36;;;;;;;14.05;12.65;;;;;;;22.64;55.26;93515.16;5068827;28;20455;-75
2023/08/03 04:59:02;;;;;;;16.92;13.65;;;;;;;22.84;55.21;93543.31;5071465;28;20055;-76
2023/08/03 05:01:28;;;;;;;18.08;13.13;;;;;;;22.85;54.58;93536.72;5066641;28;20498;-75
2023/08/03 05:03:55;;;;;;;18.83;13.85;;;;;;;22.90;53.94;93530.91;5073082;28;20024;-75
2023/08/03 05:06:20;;;;;;;19.50;13.10;;;;;;;23.01;53.61;93542.47;5068916;28;20093;-76
2023/08/03 05:08:45;;;;;;;15.55;12.45;;;;;;;23.13;53.88;93544.69;5071361;28;20044;-75
2023/08/03 05:11:11;;;;;;;22.42;13.30;;;;;;;23.21;53.14;93541.94;5067819;28;20054;-74
2023/08/03 05:13:36;;;;;;;18.92;13.77;;;;;;;23.32;52.88;93543.38;5072387;28;20044;-74
2023/08/03 05:16:02;;;;;;;20.08;13.32;;;;;;;23.31;52.33;93535.66;5067917;28;20585;-75
2023/08/03 05:18:28;;;;;;;18.20;13.55;;;;;;;23.39;52.83;93547.97;5070391;28;20036;-74
2023/08/03 05:20:53;;;;;;;17.98;14.35;;;;;;;23.37;53.00;93540.22;5068592;28;20487;-75
2023/08/03 05:23:19;;;;;;;17.13;13.88;;;;;;;23.41;52.47;93545.66;5069893;28;20036;-75
2023/08/03 05:25:45;;;;;;;25.83;15.23;;;;;;;23.44;52.27;93547.53;5069077;28;20108;-75
2023/08/03 05:28:11;;;;;;;24.25;14.73;;;;;;;23.47;52.48;93544.78;5069745;28;20110;-74
2023/08/03 05:30:36;;;;;;;40.35;14.82;;;;;;;23.48;51.81;93542.84;5069475;28;20521;-75
2023/08/03 05:33:02;;;;;;;23.33;13.85;;;;;;;23.52;52.00;93554.47;5069483;28;20056;-75
2023/08/03 05:35:28;;;;;;;16.88;13.65;;;;;;;23.62;51.82;93553.63;5084769;27;20036;-74
2023/08/03 05:37:54;;;;;;;23.40;14.57;;;;;;;23.60;51.81;93558.69;5067309;28;20055;-75
2023/08/03 05:40:22;;;;;;;18.92;14.30;;;;;;;23.61;52.18;93549.38;5075890;28;20023;-75
2023/08/03 05:42:48;;;;;;;23.20;14.27;;;;;;;23.69;51.03;93564.41;5068989;28;20874;-74
2023/08/03 05:45:35;;;;;;;19.65;15.10;;;;;;;23.50;51.87;93554.91;5069678;28;20028;-74
2023/08/03 05:48:01;;;;;;;17.10;14.32;;;;;;;23.51;51.82;93550.25;5069583;28;20046;-75
2023/08/03 05:50:26;;;;;;;18.20;14.32;;;;;;;23.62;52.24;93547.41;5067134;28;20032;-74
2023/08/03 05:52:52;;;;;;;22.67;14.50;;;;;;;23.79;51.57;93560.06;5068332;28;20036;-74
2023/08/03 05:55:18;;;;;;;15.85;14.20;;;;;;;23.81;51.86;93553.03;5068909;28;20479;-74
2023/08/03 05:57:43;;;;;;;20.48;14.80;;;;;;;23.82;51.37;93557.31;5066010;28;20073;-75
2023/08/03 06:00:16;;;;;;;19.75;14.60;;;;;;;23.92;50.51;93561.84;5067257;27;20036;-75
2023/08/03 06:02:43;;;;;;;22.08;13.68;;;;;;;23.97;51.31;93561.41;5070500;28;20278;-75
2023/08/03 06:05:56;;;;;;;23.30;14.32;;;;;;;24.13;51.17;93568.28;5082363;27;20028;-75
2023/08/03 06:08:26;;;;;;;18.15;14.15;;;;;;;24.16;50.94;93568.22;5065743;28;20042;-75
2023/08/03 06:11:02;;;;;;;20.52;13.15;;;;;;;24.31;50.87;93571.56;5069931;28;20047;-74
2023/08/03 06:13:31;;;;;;;17.33;13.57;;;;;;;24.39;50.51;93570.31;5067341;28;20035;-74
2023/08/03 06:15:57;;;;;;;19.08;13.30;;;;;;;24.53;49.46;93569.38;5068362;28;20032;-74
2023/08/03 06:18:22;;;;;;;17.65;12.65;;;;;;;24.63;49.14;93580.13;5069340;28;20024;-75
2023/08/03 06:20:50;;;;;;;19.38;13.02;;;;;;;24.62;48.72;93578.56;5069187;28;20059;-75
2023/08/03 06:23:28;;;;;;;16.92;12.35;;;;;;;24.70;48.73;93573.81;5068004;28;20040;-74
2023/08/03 06:25:55;;;;;;;14.43;12.55;;;;;;;24.77;48.69;93568.31;5072455;28;20086;-74
2023/08/03 06:28:23;;;;;;;15.77;12.75;;;;;;;24.88;47.26;93584.50;5067627;28;20039;-74
2023/08/03 06:30:51;;;;;;;13.70;12.32;;;;;;;24.94;48.04;93571.94;5075202;28;20008;-75
2023/08/03 06:33:18;;;;;;;15.90;11.80;;;;;;;24.98;47.77;93572.69;5067920;28;20117;-76
2023/08/03 06:35:45;;;;;;;13.77;12.43;;;;;;;25.05;46.13;93575.31;5068842;28;20036;-74
2023/08/03 06:38:16;;;;;;;15.30;11.82;;;;;;;24.98;46.55;93575.41;5066761;28;20544;-75
2023/08/03 06:40:42;;;;;;;15.73;11.63;;;;;;;24.92;46.99;93575.09;5067932;28;20063;-75
2023/08/03 06:43:09;;;;;;;20.52;12.68;;;;;;;25.01;47.54;93571.88;5066521;28;20098;-75
2023/08/03 06:45:34;;;;;;;17.27;13.88;;;;;;;24.99;48.04;93585.09;5069892;28;20030;-74
2023/08/03 06:48:01;;;;;;;16.05;13.40;;;;;;;24.82;48.57;93570.56;5064126;28;20413;-75
2023/08/03 06:50:29;;;;;;;15.68;12.32;;;;;;;24.93;48.48;93586.75;5069541;28;20444;-75
2023/08/03 06:52:55;;;;;;;16.02;13.80;;;;;;;24.97;47.82;93592.91;5051611;28;20048;-75
2023/08/03 06:55:21;;;;;;;19.23;13.35;;;;;;;25.02;48.29;93584.28;5046427;28;20028;-74
2023/08/03 06:57:47;;;;;;;15.40;11.57;;;;;;;25.05;48.04;93583.47;5068886;28;20023;-76
2023/08/03 07:00:12;;;;;;;17.15;12.93;;;;;;;25.15;48.13;93574.38;5068579;27;20043;-76
2023/08/03 07:02:38;;;;;;;18.00;13.60;;;;;;;25.20;47.62;93577.41;5053002;28;20052;-77
2023/08/03 07:05:04;;;;;;;13.00;11.70;;;;;;;25.30;47.08;93575.72;5039863;28;20125;-76
2023/08/03 07:07:30;;;;;;;14.82;12.23;;;;;;;25.33;47.34;93574.91;5037563;28;20586;-76
2023/08/03 07:09:56;;;;;;;14.98;11.80;;;;;;;25.48;47.25;93570.78;5032045;28;20380;-76
2023/08/03 07:12:21;;;;;;;17.20;11.88;;;;;;;25.58;46.89;93580.72;5056649;28;20055;-76
2023/08/03 07:14:47;;;;;;;15.65;11.95;;;;;;;25.50;46.02;93564.94;5042286;28;20035;-75
2023/08/03 07:17:12;;;;;;;14.88;11.63;;;;;;;25.48;46.16;93575.44;5044731;28;20122;-76
2023/08/03 07:19:37;;;;;;;13.68;12.20;;;;;;;25.59;45.42;93570.59;5052998;28;20348;-75
2023/08/03 07:22:04;;;;;;;13.18;11.13;;;;;;;25.74;45.99;93566.47;5036306;28;20779;-76
2023/08/03 07:24:32;;;;;;;13.02;11.73;;;;;;;25.95;45.25;93578.97;5034761;28;20843;-75
2023/08/03 07:27:00;;;;;;;13.30;11.93;;;;;;;26.00;45.94;93575.78;5055450;28;20047;-76
2023/08/03 07:29:26;;;;;;;14.40;11.40;;;;;;;26.12;44.59;93569.69;5056386;28;20073;-75
2023/08/03 07:31:52;;;;;;;12.23;10.95;;;;;;;25.92;45.28;93575.13;5057538;28;20036;-75
2023/08/03 07:34:17;;;;;;;12.55;11.35;;;;;;;25.97;45.40;93566.47;5054109;28;20417;-74
2023/08/03 07:36:43;;;;;;;14.48;11.25;;;;;;;26.13;44.29;93573.97;5057834;28;20032;-76
2023/08/03 07:39:09;;;;;;;13.25;11.77;;;;;;;26.08;45.07;93566.28;5037727;28;20045;-76
2023/08/03 07:41:34;;;;;;;13.35;11.35;;;;;;;26.28;44.42;93569.78;5035555;28;20406;-76
2023/08/03 07:44:00;;;;;;;12.43;10.77;;;;;;;26.26;44.20;93561.25;5032999;28;20114;-76
2023/08/03 07:46:25;;;;;;;17.00;11.75;;;;;;;26.25;45.00;93559.72;5040495;28;20497;-75
2023/08/03 07:48:50;;;;;;;13.77;11.10;;;;;;;26.31;43.98;93552.59;5055464;28;20035;-74
2023/08/03 07:51:17;;;;;;;12.80;10.73;;;;;;;26.46;44.37;93567.50;5035849;27;20521;-76
2023/08/03 07:53:43;;;;;;;12.55;11.25;;;;;;;26.52;43.95;93568.56;5040163;28;20036;-75
2023/08/03 07:56:15;;;;;;;13.30;11.55;;;;;;;26.47;44.37;93555.44;5047078;28;20028;-75
2023/08/03 07:58:41;;;;;;;14.45;11.95;;;;;;;26.53;42.92;93553.75;5050233;28;20033;-75
2023/08/03 08:01:07;;;;;;;12.90;11.20;;;;;;;26.63;42.60;93562.91;5042569;28;20024;-75
2023/08/03 08:03:34;;;;;;;13.43;12.13;;;;;;;26.64;43.35;93563.66;5039287;28;20286;-76
2023/08/03 08:06:16;;;;;;;11.88;10.65;;;;;;;26.63;43.64;93551.22;5036236;28;20047;-76
2023/08/03 08:08:42;;;;;;;13.27;11.88;;;;;;;26.73;42.88;93550.22;5045937;28;20572;-75
2023/08/03 08:11:09;;;;;;;11.63;10.07;;;;;;;26.75;42.23;93561.47;5047313;28;21564;-77
2023/08/03 08:13:35;;;;;;;16.00;11.63;;;;;;;26.69;42.73;93560.44;5058036;28;20037;-76
2023/08/03 08:16:02;;;;;;;13.00;11.52;;;;;;;26.72;42.67;93556.88;5038853;28;20066;-77
2023/08/03 08:18:29;;;;;;;13.20;11.23;;;;;;;26.54;43.50;93566.16;5044903;28;20044;-76
2023/08/03 08:21:01;;;;;;;11.77;10.57;;;;;;;26.52;43.47;93567.78;5037492;28;20043;-75
2023/08/03 08:23:27;;;;;;;13.30;12.00;;;;;;;26.40;43.12;93538.38;5056229;28;20033;-75
2023/08/03 08:25:53;;;;;;;13.68;12.07;;;;;;;26.63;43.64;93551.22;5035983;28;20040;-76
2023/08/03 08:28:18;;;;;;;11.77;10.60;;;;;;;26.62;43.30;93545.00;5040495;28;20106;-76
2023/08/03 08:30:44;;;;;;;13.35;11.95;;;;;;;26.69;43.13;93555.00;5040141;28;20029;-75
2023/08/03 08:33:11;;;;;;;13.27;11.43;;;;;;;26.62;43.14;93538.75;5040009;28;20060;-75
2023/08/03 08:35:36;;;;;;;11.82;10.73;;;;;;;26.80;42.90;93542.66;5038696;28;20617;-75
2023/08/03 08:38:05;;;;;;;12.57;11.30;;;;;;;26.62;42.38;93511.50;5043501;28;20119;-74
2023/08/03 08:40:37;;;;;;;12.65;11.43;;;;;;;26.90;42.68;93538.91;5046376;28;20051;-76
2023/08/03 08:43:03;;;;;;;13.25;11.32;;;;;;;26.93;43.08;93534.59;5048020;28;20020;-76
2023/08/03 08:45:32;;;;;;;12.13;10.82;;;;;;;27.03;43.52;93533.63;5051924;28;20462;-76
2023/08/03 08:47:58;;;;;;;12.30;11.00;;;;;;;27.10;43.15;93540.84;5048209;28;20047;-76
2023/08/03 08:50:24;;;;;;;13.02;11.73;;;;;;;27.17;42.48;93525.09;5060477;28;20032;-74
2023/08/03 08:52:51;;;;;;;18.40;11.73;;;;;;;27.19;41.58;93533.63;5067729;28;20055;-73
2023/08/03 08:55:22;;;;;;;14.68;11.65;;;;;;;26.88;41.51;93519.50;5071178;28;20032;-76
2023/08/03 08:57:48;;;;;;;23.48;11.85;;;;;;;26.89;42.00;93539.34;5073013;28;20020;-73
2023/08/03 09:00:15;;;;;;;14.73;12.23;;;;;;;26.79;42.32;93518.53;5048532;28;20048;-75
2023/08/03 09:02:40;;;;;;;15.80;10.93;;;;;;;27.07;42.09;93519.88;5047518;28;20118;-75
2023/08/03 09:05:10;;;;;;;14.45;11.95;;;;;;;27.24;42.66;93530.38;5049665;28;20055;-75
2023/08/03 09:07:36;;;;;;;12.48;11.10;;;;;;;27.29;41.94;93529.88;5053658;28;20043;-75
2023/08/03 09:10:02;;;;;;;11.25;10.15;;;;;;;27.16;41.37;93514.59;5069578;28;20670;-75
2023/08/03 09:12:28;;;;;;;15.50;11.35;;;;;;;27.18;41.53;93521.16;5070305;28;20098;-75
2023/08/03 09:14:58;;;;;;;12.93;11.65;;;;;;;27.28;41.11;93531.06;5072831;28;20036;-74
2023/08/03 09:17:25;;;;;;;14.35;12.43;;;;;;;27.25;42.22;93521.00;5061725;28;20037;-74
2023/08/03 09:19:54;;;;;;;12.93;11.50;;;;;;;27.27;42.20;93526.03;5045473;28;20035;-76
2023/08/03 09:22:24;;;;;;;13.10;11.32;;;;;;;27.37;42.47;93525.75;5043595;28;20048;-76
2023/08/03 09:25:16;;;;;;;14.70;13.15;;;;;;;27.36;42.25;93535.16;5046297;28;20028;-74
2023/08/03 09:27:54;;;;;;;15.43;13.27;;;;;;;27.30;42.75;93519.72;5062193;28;20116;-75
2023/08/03 09:30:21;;;;;;;17.05;12.75;;;;;;;27.42;43.29;93519.78;5064173;28;20047;-76
2023/08/03 09:32:47;;;;;;;14.23;12.73;;;;;;;27.42;42.18;93518.28;5045319;28;20077;-75
2023/08/03 09:35:22;;;;;;;17.05;12.77;;;;;;;27.56;42.67;93520.66;5054733;28;20139;-75
2023/08/03 09:37:50;;;;;;;15.35;13.18;;;;;;;27.64;42.13;93522.03;5045770;28;20036;-75
2023/08/03 09:40:17;;;;;;;13.80;12.50;;;;;;;27.69;41.23;93505.13;5046987;28;20100;-75
2023/08/03 09:42:44;;;;;;;15.55;12.90;;;;;;;27.72;41.43;93510.47;5045945;28;20028;-76
2023/08/03 09:45:12;;;;;;;16.67;12.98;;;;;;;27.64;41.82;93497.44;5063198;28;20041;-74
2023/08/03 09:47:39;;;;;;;18.48;13.10;;;;;;;27.88;41.00;93504.22;5046434;28;20508;-74
2023/08/03 09:50:05;;;;;;;14.25;12.73;;;;;;;27.78;40.99;93503.31;5045612;28;20029;-76
2023/08/03 09:52:31;;;;;;;21.42;12.40;;;;;;;27.68;41.90;93500.84;5047570;28;20463;-75
2023/08/03 09:55:13;;;;;;;15.40;13.82;;;;;;;27.68;42.27;93498.13;5045727;28;20040;-75
2023/08/03 09:58:12;;;;;;;14.77;13.27;;;;;;;27.73;41.55;93505.78;5068050;28;20409;-74
2023/08/03 10:00:38;;;;;;;16.00;12.43;;;;;;;27.82;42.51;93503.22;5040907;28;20044;-76
2023/08/03 10:03:12;;;;;;;15.02;13.50;;;;;;;27.96;41.64;93502.09;5062352;28;20030;-76
2023/08/03 10:05:51;;;;;;;18.42;14.25;;;;;;;27.84;41.61;93489.91;5064046;28;20048;-76
2023/08/03 10:08:27;;;;;;;14.48;13.00;;;;;;;27.82;41.90;93492.28;5043324;28;20040;-75
2023/08/03 10:10:59;;;;;;;15.55;12.80;;;;;;;28.09;41.71;93487.25;5056680;28;20160;-76
2023/08/03 10:13:27;;;;;;;14.27;12.70;;;;;;;28.13;41.46;93482.50;5068463;28;20082;-74
2023/08/03 10:15:53;;;;;;;20.98;12.65;;;;;;;28.18;41.70;93481.19;5069999;28;20028;-76
2023/08/03 10:18:19;;;;;;;13.55;12.07;;;;;;;28.29;40.43;93472.69;5067904;28;20043;-76
2023/08/03 10:20:46;;;;;;;14.65;13.07;;;;;;;28.24;41.40;93469.28;5077095;28;20036;-75
2023/08/03 10:23:19;;;;;;;14.15;12.65;;;;;;;28.28;41.71;93469.19;5055304;28;20094;-77
2023/08/03 10:25:58;;;;;;;13.95;12.55;;;;;;;28.10;40.89;93453.28;5050364;28;20043;-76
2023/08/03 10:28:43;;;;;;;15.45;12.75;;;;;;;28.14;40.94;93451.22;5069823;28;20024;-75
2023/08/03 10:31:14;;;;;;;13.40;12.00;;;;;;;28.32;40.96;93463.59;5065891;28;20069;-75
2023/08/03 10:36:33;;;;;;;15.63;12.52;;;;;;;28.52;40.53;93455.97;5065174;28;20036;-74
2023/08/03 10:39:09;;;;;;;13.70;12.30;;;;;;;28.50;40.16;93452.94;5064475;28;20136;-74
2023/08/03 10:41:40;;;;;;;13.40;12.10;;;;;;;28.53;39.94;93452.06;5066206;28;20097;-75
2023/08/03 10:44:05;;;;;;;15.07;12.55;;;;;;;28.51;40.32;93448.97;5063811;28;20091;-74
2023/08/03 10:46:37;;;;;;;13.07;11.52;;;;;;;28.58;40.84;93451.50;5040067;28;20566;-74
2023/08/03 10:49:24;;;;;;;13.70;12.18;;;;;;;28.61;39.99;93453.38;5040547;28;20032;-75
2023/08/03 10:51:51;;;;;;;13.40;11.57;;;;;;;28.70;40.80;93439.81;5042806;28;20132;-74
2023/08/03 10:54:19;;;;;;;14.68;13.00;;;;;;;28.82;41.41;93439.06;5041708;28;20052;-74
2023/08/03 10:57:04;;;;;;;17.65;12.32;;;;;;;28.86;39.36;93442.47;5038562;28;20317;-76
2023/08/03 10:59:38;;;;;;;13.98;12.18;;;;;;;28.83;39.11;93446.09;5040345;28;20379;-74
2023/08/03 11:02:14;;;;;;;14.57;12.65;;;;;;;28.69;39.82;93438.31;5035328;28;20044;-75
2023/08/03 11:04:41;;;;;;;14.35;12.55;;;;;;;28.69;40.17;93437.53;5037168;28;20841;-75
2023/08/03 11:07:09;;;;;;;15.88;11.65;;;;;;;28.69;40.23;93430.09;5034915;28;20483;-74
2023/08/03 11:09:35;;;;;;;13.25;11.45;;;;;;;28.65;40.16;93421.22;5035560;28;20167;-75
2023/08/03 11:12:00;;;;;;;12.80;11.60;;;;;;;28.72;39.21;93420.25;5042354;28;20145;-75
2023/08/03 11:14:29;;;;;;;12.20;11.00;;;;;;;28.78;38.56;93413.78;5034198;28;20562;-77
2023/08/03 11:16:54;;;;;;;13.48;10.85;;;;;;;28.97;38.48;93423.72;5036845;28;20426;-76
2023/08/03 11:19:22;;;;;;;12.20;11.00;;;;;;;29.10;37.21;93421.75;5033188;28;20040;-75
2023/08/03 11:21:48;;;;;;;11.13;9.90;;;;;;;29.00;38.51;93411.91;5041998;28;20318;-76
2023/08/03 11:24:13;;;;;;;12.55;10.75;;;;;;;29.20;37.80;93419.13;5034696;28;20056;-75